createdAt,value
2017-06-17T00:00:13.555Z,102020.14
2017-06-17T00:02:41.095Z,102027.07
2017-06-17T00:05:08.643Z,102028.76
2017-06-17T00:07:36.313Z,102036.20
2017-06-17T00:10:03.819Z,102034.28
2017-06-17T00:12:31.394Z,102040.02
2017-06-17T00:14:58.951Z,102037.17
2017-06-17T00:17:26.474Z,102031.02
2017-06-17T00:19:54.233Z,102042.05
2017-06-17T00:22:21.855Z,102046.65
2017-06-17T00:24:49.415Z,102047.37
2017-06-17T00:27:16.925Z,102043.56
2017-06-17T00:29:44.587Z,102045.89
2017-06-17T00:32:12.110Z,102041.55
2017-06-17T00:34:39.655Z,102046.05
2017-06-17T00:37:07.210Z,102044.63
2017-06-17T00:39:34.753Z,102047.36
2017-06-17T00:42:02.302Z,102040.46
2017-06-17T00:44:29.808Z,102045.43
2017-06-17T00:46:57.346Z,102042.31
2017-06-17T00:49:24.928Z,102044.42
2017-06-17T00:51:52.444Z,102046.89
2017-06-17T00:54:20.011Z,102041.10
2017-06-17T00:56:47.523Z,102042.43
2017-06-17T00:59:15.122Z,102045.23
2017-06-17T01:01:42.678Z,102057.59
2017-06-17T01:04:10.231Z,102051.95
2017-06-17T01:06:37.783Z,102046.81
2017-06-17T01:09:05.306Z,102052.78
2017-06-17T01:11:32.893Z,102049.59
2017-06-17T01:14:00.394Z,102053.64
2017-06-17T01:16:27.989Z,102053.16
2017-06-17T01:18:55.534Z,102045.36
2017-06-17T01:21:23.046Z,102051.27
2017-06-17T01:23:50.603Z,102046.22
2017-06-17T01:26:18.115Z,102047.90
2017-06-17T01:28:45.675Z,102049.91
2017-06-17T01:31:13.198Z,102050.78
2017-06-17T01:33:40.707Z,102057.19
2017-06-17T01:36:08.258Z,102056.80
2017-06-17T01:38:35.763Z,102058.61
2017-06-17T01:41:03.311Z,102061.29
2017-06-17T01:43:30.899Z,102059.73
2017-06-17T01:45:58.478Z,102060.05
2017-06-17T01:48:25.973Z,102063.06
2017-06-17T01:50:53.492Z,102055.70
2017-06-17T01:53:21.032Z,102047.39
2017-06-17T01:55:48.543Z,102050.27
2017-06-17T01:58:16.107Z,102052.03
2017-06-17T02:00:43.625Z,102048.62
2017-06-17T02:03:11.172Z,102044.84
2017-06-17T02:05:38.680Z,102046.34
2017-06-17T02:08:06.250Z,102045.20
2017-06-17T02:10:33.767Z,102046.53
2017-06-17T02:13:01.308Z,102041.06
2017-06-17T02:15:28.903Z,102042.15
2017-06-17T02:17:56.413Z,102040.00
2017-06-17T02:20:23.973Z,102040.16
2017-06-17T02:22:51.491Z,102047.80
2017-06-17T02:25:19.051Z,102042.44
2017-06-17T02:27:46.666Z,102043.32
2017-06-17T02:30:14.219Z,102055.38
2017-06-17T02:32:41.787Z,102047.72
2017-06-17T02:35:09.293Z,102038.91
2017-06-17T02:37:36.867Z,102045.14
2017-06-17T02:40:04.424Z,102045.88
2017-06-17T02:42:31.921Z,102042.63
2017-06-17T02:44:59.471Z,102043.66
2017-06-17T02:47:27.015Z,102043.75
2017-06-17T02:49:54.582Z,102040.85
2017-06-17T02:52:22.091Z,102048.62
2017-06-17T02:54:49.599Z,102049.13
2017-06-17T02:57:17.158Z,102047.64
2017-06-17T02:59:44.666Z,102049.79
2017-06-17T03:02:12.217Z,102051.53
2017-06-17T03:04:39.740Z,102048.69
2017-06-17T03:07:07.335Z,102052.22
2017-06-17T03:09:34.878Z,102055.48
2017-06-17T03:12:11.127Z,102057.37
2017-06-17T03:14:38.641Z,102054.68
2017-06-17T03:17:06.179Z,102053.13
2017-06-17T03:19:33.728Z,102049.56
2017-06-17T03:22:01.258Z,102047.64
2017-06-17T03:24:28.887Z,102049.33
2017-06-17T03:26:56.407Z,102048.33
2017-06-17T03:29:23.979Z,102052.05
2017-06-17T03:31:51.487Z,102053.53
2017-06-17T03:34:19.002Z,102047.05
2017-06-17T03:36:46.560Z,102047.07
2017-06-17T03:39:14.062Z,102052.62
2017-06-17T03:41:41.619Z,102050.88
2017-06-17T03:44:09.159Z,102048.92
2017-06-17T03:46:36.725Z,102047.98
2017-06-17T03:49:04.238Z,102045.89
2017-06-17T03:51:31.804Z,102045.59
2017-06-17T03:53:59.391Z,102051.39
2017-06-17T03:56:26.902Z,102051.49
2017-06-17T03:58:54.456Z,102052.53
2017-06-17T04:01:22.034Z,102045.27
2017-06-17T04:03:49.602Z,102046.09
2017-06-17T04:06:17.118Z,102040.73
2017-06-17T04:08:44.632Z,102038.36
2017-06-17T04:11:12.174Z,102042.73
2017-06-17T04:13:39.707Z,102046.68
2017-06-17T04:16:07.244Z,102046.30
2017-06-17T04:18:34.766Z,102043.83
2017-06-17T04:21:02.306Z,102044.94
2017-06-17T04:23:29.814Z,102053.02
2017-06-17T04:25:57.386Z,102044.47
2017-06-17T04:28:24.912Z,102046.67
2017-06-17T04:30:52.439Z,102045.19
2017-06-17T04:33:20.003Z,102049.20
2017-06-17T04:35:47.511Z,102047.67
2017-06-17T04:38:15.075Z,102045.95
2017-06-17T04:40:42.596Z,102058.11
2017-06-17T04:43:10.154Z,102057.36
2017-06-17T04:45:37.771Z,102057.63
2017-06-17T04:48:05.286Z,102059.70
2017-06-17T04:50:33.008Z,102067.31
2017-06-17T04:53:00.526Z,102054.56
2017-06-17T04:55:28.091Z,102056.48
2017-06-17T04:57:55.631Z,102059.44
2017-06-17T05:00:23.151Z,102051.84
2017-06-17T05:02:50.724Z,102048.38
2017-06-17T05:05:18.236Z,102050.98
2017-06-17T05:07:45.794Z,102056.13
2017-06-17T05:10:13.307Z,102052.52
2017-06-17T05:12:40.839Z,102055.38
2017-06-17T05:15:08.395Z,102053.24
2017-06-17T05:17:35.917Z,102047.04
2017-06-17T05:20:03.458Z,102041.91
2017-06-17T05:22:30.992Z,102050.33
2017-06-17T05:24:58.515Z,102049.67
2017-06-17T05:27:26.019Z,102052.58
2017-06-17T05:29:53.568Z,102047.61
2017-06-17T05:32:21.082Z,102044.06
2017-06-17T05:34:48.639Z,102055.31
2017-06-17T05:37:16.191Z,102062.56
2017-06-17T05:39:43.707Z,102063.95
2017-06-17T05:42:11.263Z,102063.11
2017-06-17T05:44:38.978Z,102068.80
2017-06-17T05:47:06.560Z,102071.11
2017-06-17T05:49:34.164Z,102070.11
2017-06-17T05:52:01.745Z,102067.42
2017-06-17T05:54:29.247Z,102069.26
2017-06-17T05:56:56.807Z,102067.16
2017-06-17T05:59:24.319Z,102067.05
2017-06-17T06:01:51.841Z,102067.19
2017-06-17T06:04:19.396Z,102069.46
2017-06-17T06:06:46.908Z,102073.82
2017-06-17T06:09:14.474Z,102077.91
2017-06-17T06:11:41.999Z,102082.09
2017-06-17T06:14:09.567Z,102082.47
2017-06-17T06:16:37.087Z,102088.58
2017-06-17T06:19:04.626Z,102089.65
2017-06-17T06:21:32.180Z,102087.64
2017-06-17T06:23:59.682Z,102090.09
2017-06-17T06:26:27.288Z,102090.36
2017-06-17T06:28:54.811Z,102093.05
2017-06-17T06:31:22.348Z,102098.50
2017-06-17T06:33:49.885Z,102095.30
2017-06-17T06:36:17.403Z,102102.42
2017-06-17T06:38:44.969Z,102093.34
2017-06-17T06:41:12.572Z,102095.98
2017-06-17T06:43:40.146Z,102097.78
2017-06-17T06:46:07.702Z,102098.59
2017-06-17T06:48:35.351Z,102097.23
2017-06-17T06:51:02.915Z,102097.89
2017-06-17T06:53:30.420Z,102098.44
2017-06-17T06:55:58.059Z,102099.09
2017-06-17T06:58:25.579Z,102103.09
2017-06-17T07:00:53.122Z,102099.41
2017-06-17T07:03:20.670Z,102103.97
2017-06-17T07:05:48.188Z,102102.30
2017-06-17T07:08:15.754Z,102110.05
2017-06-17T07:10:43.283Z,102099.37
2017-06-17T07:13:10.872Z,102102.96
2017-06-17T07:15:38.416Z,102103.89
2017-06-17T07:18:05.990Z,102111.20
2017-06-17T07:20:33.535Z,102102.62
2017-06-17T07:23:01.064Z,102102.78
2017-06-17T07:25:28.739Z,102100.78
2017-06-17T07:27:56.280Z,102098.73
2017-06-17T07:30:23.820Z,102092.77
2017-06-17T07:32:51.399Z,102096.22
2017-06-17T07:35:18.915Z,102092.91
2017-06-17T07:37:46.458Z,102089.80
2017-06-17T07:40:13.971Z,102092.92
2017-06-17T07:42:41.815Z,102092.52
2017-06-17T07:45:09.331Z,102090.74
2017-06-17T07:47:37.754Z,102096.30
2017-06-17T07:50:05.351Z,102097.10
2017-06-17T07:52:32.898Z,102103.46
2017-06-17T07:55:00.446Z,102101.83
2017-06-17T07:57:27.973Z,102097.52
2017-06-17T07:59:55.530Z,102090.19
2017-06-17T08:02:23.046Z,102098.59
2017-06-17T08:04:50.603Z,102100.98
2017-06-17T08:07:18.139Z,102102.32
2017-06-17T08:09:45.706Z,102103.67
2017-06-17T08:12:13.273Z,102098.63
2017-06-17T08:14:40.775Z,102100.12
2017-06-17T08:17:08.345Z,102098.53
2017-06-17T08:19:35.866Z,102095.48
2017-06-17T08:22:03.405Z,102094.67
2017-06-17T08:24:30.969Z,102097.70
2017-06-17T08:26:58.539Z,102094.55
2017-06-17T08:29:26.103Z,102098.88
2017-06-17T08:31:53.621Z,102092.45
2017-06-17T08:34:21.319Z,102092.73
2017-06-17T08:36:48.823Z,102096.33
2017-06-17T08:39:16.335Z,102098.73
2017-06-17T08:41:43.907Z,102096.88
2017-06-17T08:44:11.411Z,102099.54
2017-06-17T08:46:38.983Z,102098.39
2017-06-17T08:49:06.491Z,102098.06
2017-06-17T08:51:34.032Z,102103.66
2017-06-17T08:54:01.546Z,102096.02
2017-06-17T08:56:29.118Z,102098.82
2017-06-17T08:58:56.690Z,102090.09
2017-06-17T09:01:24.202Z,102090.05
2017-06-17T09:03:51.806Z,102092.80
2017-06-17T09:06:19.332Z,102090.09
2017-06-17T09:08:46.880Z,102098.29
2017-06-17T09:11:14.395Z,102091.06
2017-06-17T09:13:42.007Z,102097.84
2017-06-17T09:16:09.515Z,102100.73
2017-06-17T09:18:37.050Z,102098.40
2017-06-17T09:21:04.587Z,102100.20
2017-06-17T09:23:33.150Z,102093.92
2017-06-17T09:26:01.836Z,102093.90
2017-06-17T09:28:30.042Z,102094.03
2017-06-17T09:33:30.491Z,102093.33
2017-06-17T09:35:58.506Z,102095.97
2017-06-17T09:38:26.152Z,102094.06
2017-06-17T09:40:53.784Z,102093.73
2017-06-17T09:43:21.551Z,102086.25
2017-06-17T09:45:49.068Z,102090.95
2017-06-17T09:48:16.615Z,102087.41
2017-06-17T09:50:44.147Z,102094.46
2017-06-17T09:53:11.694Z,102090.93
2017-06-17T09:55:39.237Z,102094.00
2017-06-17T09:58:06.940Z,102098.08
2017-06-17T10:00:34.452Z,102098.81
2017-06-17T10:03:02.059Z,102104.86
2017-06-17T10:05:29.573Z,102106.97
2017-06-17T10:07:57.130Z,102101.44
2017-06-17T10:10:24.676Z,102098.98
2017-06-17T10:12:52.251Z,102096.30
2017-06-17T10:15:19.788Z,102091.57
2017-06-17T10:17:47.398Z,102096.92
2017-06-17T10:20:14.927Z,102096.40
2017-06-17T10:22:42.476Z,102094.60
2017-06-17T10:25:10.098Z,102095.96
2017-06-17T10:27:37.657Z,102094.53
2017-06-17T10:30:05.231Z,102094.68
2017-06-17T10:32:32.760Z,102101.73
2017-06-17T10:35:00.374Z,102097.70
2017-06-17T10:37:27.931Z,102093.69
2017-06-17T10:39:55.492Z,102091.25
2017-06-17T10:42:23.159Z,102095.84
2017-06-17T10:44:50.767Z,102095.16
2017-06-17T10:47:18.487Z,102095.00
2017-06-17T10:49:46.042Z,102094.03
2017-06-17T10:52:13.807Z,102089.52
2017-06-17T10:54:41.346Z,102082.94
2017-06-17T10:57:08.871Z,102082.78
2017-06-17T10:59:36.463Z,102082.42
2017-06-17T11:02:03.980Z,102083.98
2017-06-17T11:04:31.502Z,102075.19
2017-06-17T11:06:59.138Z,102073.02
2017-06-17T11:09:26.659Z,102083.57
2017-06-17T11:11:54.228Z,102080.73
2017-06-17T11:14:21.754Z,102083.46
2017-06-17T11:16:49.370Z,102080.03
2017-06-17T11:19:16.900Z,102081.25
2017-06-17T11:21:44.429Z,102086.34
2017-06-17T11:24:11.999Z,102080.16
2017-06-17T11:26:39.515Z,102080.84
2017-06-17T11:29:07.069Z,102076.35
2017-06-17T11:31:34.590Z,102076.77
2017-06-17T11:34:02.168Z,102078.08
2017-06-17T11:36:29.691Z,102082.88
2017-06-17T11:38:57.211Z,102082.45
2017-06-17T11:41:24.776Z,102078.52
2017-06-17T11:43:52.291Z,102074.97
2017-06-17T11:46:19.867Z,102075.39
2017-06-17T11:48:47.403Z,102071.86
2017-06-17T11:51:14.914Z,102073.80
2017-06-17T11:53:42.471Z,102072.14
2017-06-17T11:56:10.023Z,102063.73
2017-06-17T11:58:37.583Z,102068.47
2017-06-17T12:01:05.092Z,102076.31
2017-06-17T12:03:32.622Z,102074.70
2017-06-17T12:06:00.187Z,102076.65
2017-06-17T12:08:27.729Z,102081.37
2017-06-17T12:10:55.303Z,102077.81
2017-06-17T12:13:22.815Z,102080.92
2017-06-17T12:15:50.423Z,102074.30
2017-06-17T12:18:17.962Z,102085.20
2017-06-17T12:20:45.474Z,102081.91
2017-06-17T12:23:13.023Z,102080.05
2017-06-17T12:25:40.534Z,102086.03
2017-06-17T12:28:08.107Z,102084.25
2017-06-17T12:30:35.618Z,102085.80
2017-06-17T12:33:03.167Z,102081.41
2017-06-17T12:35:30.695Z,102081.52
2017-06-17T12:37:58.261Z,102089.22
2017-06-17T12:40:25.776Z,102088.12
2017-06-17T12:42:53.303Z,102086.57
2017-06-17T12:45:20.856Z,102092.85
2017-06-17T12:47:48.395Z,102094.59
2017-06-17T12:50:15.970Z,102095.27
2017-06-17T12:52:43.552Z,102093.11
2017-06-17T12:55:11.058Z,102094.36
2017-06-17T12:57:38.623Z,102099.47
2017-06-17T13:00:06.175Z,102097.31
2017-06-17T13:02:33.704Z,102104.59
2017-06-17T13:05:01.235Z,102101.73
2017-06-17T13:07:28.778Z,102099.02
2017-06-17T13:09:56.330Z,102103.24
2017-06-17T13:12:23.927Z,102093.39
2017-06-17T13:14:51.452Z,102098.25
2017-06-17T13:17:19.035Z,102105.06
2017-06-17T13:19:46.675Z,102105.15
2017-06-17T13:22:14.339Z,102096.29
2017-06-17T13:24:41.960Z,102098.00
2017-06-17T13:27:09.570Z,102097.02
2017-06-17T13:29:37.107Z,102093.16
2017-06-17T13:32:04.774Z,102090.05
2017-06-17T13:34:32.311Z,102089.62
2017-06-17T13:36:59.886Z,102089.55
2017-06-17T13:39:27.479Z,102085.66
2017-06-17T13:41:55.131Z,102087.63
2017-06-17T13:44:22.664Z,102086.19
2017-06-17T13:46:50.251Z,102091.27
2017-06-17T13:49:17.870Z,102092.93
2017-06-17T13:51:45.420Z,102093.39
2017-06-17T13:54:13.057Z,102090.35
2017-06-17T13:56:40.594Z,102094.63
2017-06-17T13:59:08.194Z,102095.39
2017-06-17T14:01:35.788Z,102090.34
2017-06-17T14:04:03.448Z,102087.96
2017-06-17T14:06:30.990Z,102086.63
2017-06-17T14:08:58.588Z,102082.44
2017-06-17T14:11:26.166Z,102080.27
2017-06-17T14:13:53.772Z,102080.43
2017-06-17T14:16:21.295Z,102076.16
2017-06-17T14:18:48.811Z,102081.37
2017-06-17T14:21:21.942Z,102072.45
2017-06-17T14:23:49.455Z,102067.78
2017-06-17T14:26:17.074Z,102069.84
2017-06-17T14:28:44.623Z,102063.64
2017-06-17T14:31:12.149Z,102057.69
2017-06-17T14:33:39.727Z,102046.73
2017-06-17T14:36:07.261Z,102050.82
2017-06-17T14:38:34.814Z,102037.62
2017-06-17T14:41:02.330Z,102040.27
2017-06-17T14:43:29.892Z,102037.99
2017-06-17T14:45:57.431Z,102048.84
2017-06-17T14:48:25.010Z,102040.98
2017-06-17T14:50:52.528Z,102036.24
2017-06-17T14:53:20.059Z,102036.23
2017-06-17T14:55:47.683Z,102045.41
2017-06-17T14:58:15.227Z,102046.35
2017-06-17T15:00:42.795Z,102034.70
2017-06-17T15:03:10.387Z,102039.75
2017-06-17T15:05:38.124Z,102045.20
2017-06-17T15:08:05.655Z,102046.34
2017-06-17T15:10:33.179Z,102047.30
2017-06-17T15:13:00.903Z,102039.41
2017-06-17T15:15:28.444Z,102046.87
2017-06-17T15:17:55.986Z,102040.41
2017-06-17T15:20:23.535Z,102029.59
2017-06-17T15:22:51.068Z,102033.95
2017-06-17T15:25:18.623Z,102031.91
2017-06-17T15:27:46.163Z,102025.66
2017-06-17T15:30:13.688Z,102022.91
2017-06-17T15:32:41.198Z,102017.82
2017-06-17T15:35:08.732Z,102017.14
2017-06-17T15:37:36.287Z,102022.24
2017-06-17T15:40:03.824Z,102022.86
2017-06-17T15:42:31.516Z,102021.81
2017-06-17T15:44:59.027Z,102020.20
2017-06-17T15:47:26.590Z,102014.19
2017-06-17T15:49:54.111Z,102016.23
2017-06-17T15:52:21.658Z,102019.37
2017-06-17T15:54:49.171Z,102015.17
2017-06-17T15:57:16.736Z,102017.82
2017-06-17T15:59:44.259Z,102016.37
2017-06-17T16:02:11.804Z,102009.91
2017-06-17T16:04:39.340Z,102018.06
2017-06-17T16:07:06.895Z,102015.39
2017-06-17T16:09:34.418Z,102010.66
2017-06-17T16:12:02.058Z,102006.94
2017-06-17T16:14:29.598Z,102011.62
2017-06-17T16:16:57.119Z,102002.02
2017-06-17T16:19:24.732Z,102005.52
2017-06-17T16:21:52.219Z,102008.82
2017-06-17T16:24:19.782Z,102000.97
2017-06-17T16:26:47.302Z,102007.80
2017-06-17T16:29:14.866Z,102004.91
2017-06-17T16:31:42.383Z,102006.09
2017-06-17T16:34:09.944Z,102008.20
2017-06-17T16:36:37.465Z,102003.37
2017-06-17T16:39:05.027Z,102000.90
2017-06-17T16:41:32.543Z,102004.61
2017-06-17T16:44:00.059Z,102006.25
2017-06-17T16:46:27.667Z,102007.20
2017-06-17T16:48:55.178Z,102009.92
2017-06-17T16:51:22.741Z,102006.66
2017-06-17T16:53:50.267Z,102008.34
2017-06-17T16:56:17.818Z,102005.98
2017-06-17T16:58:45.402Z,102001.39
2017-06-17T17:01:12.915Z,102001.31
2017-06-17T17:03:40.487Z,101998.42
2017-06-17T17:06:08.008Z,101996.06
2017-06-17T17:08:35.599Z,101997.31
2017-06-17T17:11:03.161Z,101991.44
2017-06-17T17:13:30.678Z,101998.38
2017-06-17T17:15:58.235Z,102003.56
2017-06-17T17:18:25.766Z,101998.88
2017-06-17T17:20:53.327Z,102001.53
2017-06-17T17:23:20.855Z,102004.10
2017-06-17T17:25:48.535Z,102008.20
2017-06-17T17:28:16.107Z,101995.95
2017-06-17T17:30:43.629Z,101998.95
2017-06-17T17:33:11.171Z,102006.05
2017-06-17T17:35:38.672Z,102007.70
2017-06-17T17:38:06.216Z,101997.44
2017-06-17T17:40:33.760Z,101998.53
2017-06-17T17:43:01.310Z,102003.98
2017-06-17T17:45:28.834Z,102000.86
2017-06-17T17:47:56.382Z,102000.06
2017-06-17T17:50:23.914Z,102003.52
2017-06-17T17:52:51.483Z,101999.95
2017-06-17T17:55:19.008Z,101999.08
2017-06-17T17:57:46.554Z,102007.28
2017-06-17T18:00:14.074Z,102001.61
2017-06-17T18:02:41.641Z,102006.02
2017-06-17T18:05:09.235Z,102008.16
2017-06-17T18:07:36.750Z,102005.75
2017-06-17T18:10:04.291Z,102000.90
2017-06-17T18:12:31.803Z,101996.12
2017-06-17T18:14:59.378Z,102006.53
2017-06-17T18:17:26.936Z,102007.62
2017-06-17T18:19:54.502Z,102002.89
2017-06-17T18:22:22.070Z,102012.88
2017-06-17T18:24:49.739Z,102011.47
2017-06-17T18:27:17.373Z,102012.33
2017-06-17T18:29:44.948Z,102015.94
2017-06-17T18:32:12.571Z,102014.89
2017-06-17T18:34:40.170Z,102012.47
2017-06-17T18:37:07.720Z,102017.20
2017-06-17T18:39:35.318Z,102018.83
2017-06-17T18:42:02.906Z,102010.25
2017-06-17T18:44:30.451Z,102007.33
2017-06-17T18:46:58.017Z,102011.27
2017-06-17T18:49:25.558Z,102008.23
2017-06-17T18:51:53.127Z,102008.59
2017-06-17T18:54:20.636Z,102008.11
2017-06-17T18:56:48.175Z,102004.28
2017-06-17T18:59:15.726Z,102003.22
2017-06-17T19:01:43.255Z,102000.31
2017-06-17T19:04:10.886Z,102008.22
2017-06-17T19:06:38.403Z,102012.50
2017-06-17T19:09:06.079Z,102008.20
2017-06-17T19:11:33.667Z,102010.36
2017-06-17T19:14:01.192Z,102012.14
2017-06-17T19:16:28.759Z,102016.48
2017-06-17T19:18:56.283Z,102013.02
2017-06-17T19:21:24.174Z,102015.44
2017-06-17T19:23:51.755Z,102013.42
2017-06-17T19:26:19.287Z,102021.05
2017-06-17T19:28:46.859Z,102017.77
2017-06-17T19:31:14.368Z,102019.40
2017-06-17T19:33:41.939Z,102024.55
2017-06-17T19:36:09.455Z,102028.53
2017-06-17T19:38:36.976Z,102025.21
2017-06-17T19:41:04.546Z,102028.53
2017-06-17T19:43:32.108Z,102026.20
2017-06-17T19:45:59.671Z,102030.18
2017-06-17T19:48:27.180Z,102030.13
2017-06-17T19:50:54.762Z,102034.16
2017-06-17T19:53:22.320Z,102035.72
2017-06-17T19:55:49.818Z,102040.02
2017-06-17T19:58:17.374Z,102042.66
2017-06-17T20:00:44.922Z,102045.47
2017-06-17T20:03:12.495Z,102043.72
2017-06-17T20:05:40.023Z,102051.65
2017-06-17T20:08:07.622Z,102048.06
2017-06-17T20:10:35.197Z,102052.56
2017-06-17T20:13:02.732Z,102044.42
2017-06-17T20:15:30.366Z,102048.56
2017-06-17T20:17:57.887Z,102047.69
2017-06-17T20:20:25.456Z,102053.30
2017-06-17T20:22:52.967Z,102052.86
2017-06-17T20:25:20.516Z,102053.31
2017-06-17T20:27:48.049Z,102053.77
2017-06-17T20:30:15.631Z,102055.70
2017-06-17T20:32:43.144Z,102051.79
2017-06-17T20:35:10.667Z,102057.88
2017-06-17T20:37:38.222Z,102061.23
2017-06-17T20:40:05.756Z,102062.90
2017-06-17T20:42:33.323Z,102058.16
2017-06-17T20:45:00.861Z,102060.89
2017-06-17T20:47:28.567Z,102062.45
2017-06-17T20:49:56.107Z,102063.77
2017-06-17T20:52:23.709Z,102067.41
2017-06-17T20:54:51.267Z,102063.66
2017-06-17T20:57:18.772Z,102067.10
2017-06-17T20:59:46.385Z,102061.49
2017-06-17T21:02:13.903Z,102068.88
2017-06-17T21:04:41.453Z,102065.62
2017-06-17T21:07:09.038Z,102068.66
2017-06-17T21:09:36.559Z,102072.16
2017-06-17T21:12:04.123Z,102070.94
2017-06-17T21:14:31.634Z,102076.17
2017-06-17T21:16:59.206Z,102077.05
2017-06-17T21:19:26.732Z,102075.45
2017-06-17T21:21:54.283Z,102084.13
2017-06-17T21:24:21.880Z,102081.41
2017-06-17T21:26:49.497Z,102088.03
2017-06-17T21:29:17.146Z,102089.74
2017-06-17T21:31:44.660Z,102091.03
2017-06-17T21:34:12.189Z,102087.78
2017-06-17T21:36:39.733Z,102091.53
2017-06-17T21:39:07.260Z,102089.70
2017-06-17T21:41:34.831Z,102090.42
2017-06-17T21:44:02.339Z,102092.16
2017-06-17T21:46:29.909Z,102091.75
2017-06-17T21:48:57.476Z,102086.56
2017-06-17T21:51:25.111Z,102093.56
2017-06-17T21:53:52.691Z,102099.84
2017-06-17T21:56:20.243Z,102107.64
2017-06-17T21:58:47.811Z,102103.59
2017-06-17T22:01:15.348Z,102093.06
2017-06-17T22:03:42.883Z,102097.08
2017-06-17T22:06:10.404Z,102098.94
2017-06-17T22:08:37.990Z,102102.45
2017-06-17T22:11:05.559Z,102099.96
2017-06-17T22:13:33.092Z,102096.59
2017-06-17T22:16:00.607Z,102097.27
2017-06-17T22:18:28.155Z,102093.97
2017-06-17T22:20:55.708Z,102099.01
2017-06-17T22:23:23.295Z,102090.45
2017-06-17T22:25:50.843Z,102084.96
2017-06-17T22:28:18.407Z,102088.75
2017-06-17T22:30:45.925Z,102090.22
2017-06-17T22:33:13.442Z,102087.30
2017-06-17T22:35:40.975Z,102092.76
2017-06-17T22:38:08.534Z,102085.15
2017-06-17T22:40:36.037Z,102085.91
2017-06-17T22:43:03.559Z,102086.62
2017-06-17T22:45:31.103Z,102088.36
2017-06-17T22:47:58.620Z,102079.80
2017-06-17T22:50:26.191Z,102075.95
2017-06-17T22:52:53.735Z,102076.14
2017-06-17T22:55:21.272Z,102077.70
2017-06-17T22:57:48.880Z,102077.77
2017-06-17T23:00:16.415Z,102072.25
2017-06-17T23:02:43.962Z,102073.76
2017-06-17T23:05:11.497Z,102071.48
2017-06-17T23:07:39.035Z,102079.31
2017-06-17T23:10:06.595Z,102070.65
2017-06-17T23:12:34.115Z,102069.52
2017-06-17T23:15:01.697Z,102073.13
2017-06-17T23:17:29.207Z,102067.28
2017-06-17T23:19:56.747Z,102070.58
2017-06-17T23:22:24.252Z,102072.59
2017-06-17T23:24:51.805Z,102061.72
2017-06-17T23:27:19.320Z,102059.67
2017-06-17T23:29:47.179Z,102057.28
2017-06-17T23:32:14.700Z,102069.98
2017-06-17T23:34:42.208Z,102073.23
2017-06-17T23:37:09.746Z,102070.39
2017-06-17T23:39:37.266Z,102063.09
2017-06-17T23:42:04.813Z,102063.93
2017-06-17T23:44:32.327Z,102063.81
2017-06-17T23:46:59.887Z,102069.80
2017-06-17T23:49:27.396Z,102069.49
2017-06-17T23:51:54.943Z,102067.45
2017-06-17T23:54:22.460Z,102067.59
2017-06-17T23:56:50.003Z,102061.85
2017-06-17T23:59:17.503Z,102060.11
